sensor_id;sensor_type;location;lat;lon;timestamp;pressure;altitude;pressure_sealevel;temperature;humidity
62126;BME280;48112;53.282;6.150;2023-02-03T00:00:47;102161.75;;;16.48;56.18
62126;BME280;48112;53.282;6.150;2023-02-03T00:01:49;102150.84;;;16.48;56.12
62126;BME280;48112;53.282;6.150;2023-02-03T00:02:51;102143.81;;;16.47;55.95
62126;BME280;48112;53.282;6.150;2023-02-03T00:03:54;102154.72;;;16.47;56.10
62126;BME280;48112;53.282;6.150;2023-02-03T00:04:56;102149.25;;;16.47;56.21
62126;BME280;48112;53.282;6.150;2023-02-03T00:05:59;102162.91;;;16.47;56.13
62126;BME280;48112;53.282;6.150;2023-02-03T00:07:01;102153.91;;;16.46;55.82
62126;BME280;48112;53.282;6.150;2023-02-03T00:08:03;102153.13;;;16.46;55.85
62126;BME280;48112;53.282;6.150;2023-02-03T00:09:06;102155.06;;;16.45;55.97
62126;BME280;48112;53.282;6.150;2023-02-03T00:10:10;102158.59;;;16.46;55.96
62126;BME280;48112;53.282;6.150;2023-02-03T00:11:12;102153.91;;;16.46;55.88
62126;BME280;48112;53.282;6.150;2023-02-03T00:12:14;102146.88;;;16.45;55.95
62126;BME280;48112;53.282;6.150;2023-02-03T00:13:16;102158.59;;;16.46;55.93
62126;BME280;48112;53.282;6.150;2023-02-03T00:14:19;102157.78;;;16.45;55.88
62126;BME280;48112;53.282;6.150;2023-02-03T00:15:21;102158.59;;;16.46;55.92
62126;BME280;48112;53.282;6.150;2023-02-03T00:16:24;102153.13;;;16.46;56.16
62126;BME280;48112;53.282;6.150;2023-02-03T00:17:25;102164.03;;;16.46;56.11
62126;BME280;48112;53.282;6.150;2023-02-03T00:18:28;102167.88;;;16.44;55.76
62126;BME280;48112;53.282;6.150;2023-02-03T00:19:30;102176.06;;;16.44;55.94
62126;BME280;48112;53.282;6.150;2023-02-03T00:20:32;102174.16;;;16.45;56.18
62126;BME280;48112;53.282;6.150;2023-02-03T00:21:35;102167.88;;;16.44;55.90
62126;BME280;48112;53.282;6.150;2023-02-03T00:22:37;102173.34;;;16.44;55.87
62126;BME280;48112;53.282;6.150;2023-02-03T00:23:40;102177.19;;;16.43;56.14
62126;BME280;48112;53.282;6.150;2023-02-03T00:24:41;102172.53;;;16.44;56.04
62126;BME280;48112;53.282;6.150;2023-02-03T00:25:45;102180.72;;;16.44;55.87
62126;BME280;48112;53.282;6.150;2023-02-03T00:26:47;102166.28;;;16.43;55.94
62126;BME280;48112;53.282;6.150;2023-02-03T00:27:50;102172.53;;;16.44;56.10
62126;BME280;48112;53.282;6.150;2023-02-03T00:28:52;102159.25;;;16.42;55.89
62126;BME280;48112;53.282;6.150;2023-02-03T00:29:56;102159.25;;;16.42;56.07
62126;BME280;48112;53.282;6.150;2023-02-03T00:30:57;102165.47;;;16.43;56.04
62126;BME280;48112;53.282;6.150;2023-02-03T00:32:00;102161.19;;;16.42;56.12
62126;BME280;48112;53.282;6.150;2023-02-03T00:33:02;102169.38;;;16.42;56.01
62126;BME280;48112;53.282;6.150;2023-02-03T00:34:05;102167.44;;;16.42;55.88
62126;BME280;48112;53.282;6.150;2023-02-03T00:35:07;102158.47;;;16.42;56.12
62126;BME280;48112;53.282;6.150;2023-02-03T00:36:10;102161.97;;;16.42;55.90
62126;BME280;48112;53.282;6.150;2023-02-03T00:37:13;102138.56;;;16.41;56.17
62126;BME280;48112;53.282;6.150;2023-02-03T00:38:15;102149.47;;;16.41;55.91
62126;BME280;48112;53.282;6.150;2023-02-03T00:39:18;102141.31;;;16.41;56.09
62126;BME280;48112;53.282;6.150;2023-02-03T00:40:20;102135.84;;;16.41;56.07
62126;BME280;48112;53.282;6.150;2023-02-03T00:41:26;102146.75;;;16.41;56.02
62126;BME280;48112;53.282;6.150;2023-02-03T00:42:28;102132.34;;;16.41;56.13
62126;BME280;48112;53.282;6.150;2023-02-03T00:43:31;102116.75;;;16.41;55.90
62126;BME280;48112;53.282;6.150;2023-02-03T00:44:32;102124.19;;;16.41;56.02
62126;BME280;48112;53.282;6.150;2023-02-03T00:45:35;102109.38;;;16.42;56.15
62126;BME280;48112;53.282;6.150;2023-02-03T00:46:37;102108.94;;;16.40;56.15
62126;BME280;48112;53.282;6.150;2023-02-03T00:47:40;102098.03;;;16.40;56.08
62126;BME280;48112;53.282;6.150;2023-02-03T00:48:42;102110.88;;;16.39;56.19
62126;BME280;48112;53.282;6.150;2023-02-03T00:49:46;102113.28;;;16.41;56.03
62126;BME280;48112;53.282;6.150;2023-02-03T00:50:48;102119.03;;;16.39;55.89
62126;BME280;48112;53.282;6.150;2023-02-03T00:51:51;102115.53;;;16.39;56.13
62126;BME280;48112;53.282;6.150;2023-02-03T00:52:54;102125.66;;;16.38;56.15
62126;BME280;48112;53.282;6.150;2023-02-03T00:53:57;102129.16;;;16.39;56.00
62126;BME280;48112;53.282;6.150;2023-02-03T00:54:58;102127.22;;;16.39;55.88
62126;BME280;48112;53.282;6.150;2023-02-03T00:56:01;102134.63;;;16.39;55.89
62126;BME280;48112;53.282;6.150;2023-02-03T00:57:04;102127.22;;;16.39;56.14
62126;BME280;48112;53.282;6.150;2023-02-03T00:58:06;102122.91;;;16.38;56.08
62126;BME280;48112;53.282;6.150;2023-02-03T00:59:08;102095.66;;;16.38;56.04
62126;BME280;48112;53.282;6.150;2023-02-03T01:00:11;102086.69;;;16.38;56.03
62126;BME280;48112;53.282;6.150;2023-02-03T01:01:13;102083.94;;;16.38;55.91
62126;BME280;48112;53.282;6.150;2023-02-03T01:02:16;102080.47;;;16.37;55.79
62126;BME280;48112;53.282;6.150;2023-02-03T01:03:18;102097.59;;;16.38;56.03
62126;BME280;48112;53.282;6.150;2023-02-03T01:04:21;102107.72;;;16.37;55.92
62126;BME280;48112;53.282;6.150;2023-02-03T01:05:23;102108.84;;;16.36;55.98
62126;BME280;48112;53.282;6.150;2023-02-03T01:06:26;102118.63;;;16.37;56.05
62126;BME280;48112;53.282;6.150;2023-02-03T01:07:29;102126.78;;;16.37;55.86
62126;BME280;48112;53.282;6.150;2023-02-03T01:08:32;102137.69;;;16.37;55.86
62126;BME280;48112;53.282;6.150;2023-02-03T01:09:34;102116.25;;;16.36;56.03
62126;BME280;48112;53.282;6.150;2023-02-03T01:10:37;102117.81;;;16.37;56.05
62126;BME280;48112;53.282;6.150;2023-02-03T01:11:39;102110.44;;;16.37;56.13
62126;BME280;48112;53.282;6.150;2023-02-03T01:12:43;102104.19;;;16.37;56.07
62126;BME280;48112;53.282;6.150;2023-02-03T01:13:45;102096.00;;;16.37;56.06
62126;BME280;48112;53.282;6.150;2023-02-03T01:14:49;102086.25;;;16.36;56.10
62126;BME280;48112;53.282;6.150;2023-02-03T01:15:51;102084.91;;;16.30;55.93
62126;BME280;48112;53.282;6.150;2023-02-03T01:16:55;102088.97;;;16.36;55.87
62126;BME280;48112;53.282;6.150;2023-02-03T01:17:57;102088.19;;;16.35;55.85
62126;BME280;48112;53.282;6.150;2023-02-03T01:19:00;102106.09;;;16.36;56.03
62126;BME280;48112;53.282;6.150;2023-02-03T01:20:02;102113.50;;;16.36;55.87
62126;BME280;48112;53.282;6.150;2023-02-03T01:21:05;102110.00;;;16.35;56.03
62126;BME280;48112;53.282;6.150;2023-02-03T01:22:07;102120.88;;;16.35;55.87
62126;BME280;48112;53.282;6.150;2023-02-03T01:23:10;102111.91;;;16.35;56.06
62126;BME280;48112;53.282;6.150;2023-02-03T01:24:12;102107.25;;;16.35;55.99
62126;BME280;48112;53.282;6.150;2023-02-03T01:25:15;102102.97;;;16.34;55.87
62126;BME280;48112;53.282;6.150;2023-02-03T01:26:18;102112.25;;;16.33;55.79
62126;BME280;48112;53.282;6.150;2023-02-03T01:27:21;102101.34;;;16.33;55.85
62126;BME280;48112;53.282;6.150;2023-02-03T01:28:25;102102.97;;;16.34;56.05
62126;BME280;48112;53.282;6.150;2023-02-03T01:29:27;102120.44;;;16.33;56.13
62126;BME280;48112;53.282;6.150;2023-02-03T01:30:29;102117.72;;;16.33;55.89
62126;BME280;48112;53.282;6.150;2023-02-03T01:31:33;102122.41;;;16.33;55.81
62126;BME280;48112;53.282;6.150;2023-02-03T01:32:35;102104.88;;;16.34;55.79
62126;BME280;48112;53.282;6.150;2023-02-03T01:33:38;102123.97;;;16.34;55.96
62126;BME280;48112;53.282;6.150;2023-02-03T01:34:41;102126.69;;;16.34;55.85
62126;BME280;48112;53.282;6.150;2023-02-03T01:35:43;102139.53;;;16.33;55.86
62126;BME280;48112;53.282;6.150;2023-02-03T01:36:45;102136.78;;;16.33;55.89
62126;BME280;48112;53.282;6.150;2023-02-03T01:37:48;102130.56;;;16.33;55.77
62126;BME280;48112;53.282;6.150;2023-02-03T01:38:50;102134.06;;;16.33;55.94
62126;BME280;48112;53.282;6.150;2023-02-03T01:39:55;102114.22;;;16.33;55.55
62126;BME280;48112;53.282;6.150;2023-02-03T01:40:56;102115.34;;;16.32;55.77
62126;BME280;48112;53.282;6.150;2023-02-03T01:41:59;102116.13;;;16.32;56.01
62126;BME280;48112;53.282;6.150;2023-02-03T01:43:01;102095.13;;;16.33;56.08
62126;BME280;48112;53.282;6.150;2023-02-03T01:45:21;102085.34;;;16.32;56.01
62126;BME280;48112;53.282;6.150;2023-02-03T01:46:27;102090.03;;;16.31;55.87
62126;BME280;48112;53.282;6.150;2023-02-03T01:47:31;102077.19;;;16.32;55.72
62126;BME280;48112;53.282;6.150;2023-02-03T01:48:35;102065.50;;;16.31;55.77
62126;BME280;48112;53.282;6.150;2023-02-03T01:49:36;102074.81;;;16.30;55.79
62126;BME280;48112;53.282;6.150;2023-02-03T01:50:40;102055.38;;;16.32;55.96
62126;BME280;48112;53.282;6.150;2023-02-03T01:51:42;102055.38;;;16.32;55.71
62126;BME280;48112;53.282;6.150;2023-02-03T01:52:47;102045.63;;;16.31;55.77
62126;BME280;48112;53.282;6.150;2023-02-03T01:53:51;102069.34;;;16.30;56.03
62126;BME280;48112;53.282;6.150;2023-02-03T01:54:56;102066.63;;;16.30;55.75
62126;BME280;48112;53.282;6.150;2023-02-03T01:55:58;102086.50;;;16.31;56.09
62126;BME280;48112;53.282;6.150;2023-02-03T01:57:03;102091.16;;;16.30;55.71
62126;BME280;48112;53.282;6.150;2023-02-03T01:58:07;102084.91;;;16.30;56.00
62126;BME280;48112;53.282;6.150;2023-02-03T01:59:12;102085.72;;;16.30;55.87
62126;BME280;48112;53.282;6.150;2023-02-03T02:00:16;102090.34;;;16.30;55.95
62126;BME280;48112;53.282;6.150;2023-02-03T02:01:20;102093.88;;;16.30;55.78
62126;BME280;48112;53.282;6.150;2023-02-03T02:02:25;102088.44;;;16.30;55.73
62126;BME280;48112;53.282;6.150;2023-02-03T02:03:28;102098.53;;;16.30;55.75
62126;BME280;48112;53.282;6.150;2023-02-03T02:04:33;102082.19;;;16.30;56.02
62126;BME280;48112;53.282;6.150;2023-02-03T02:05:39;102075.97;;;16.29;55.75
62126;BME280;48112;53.282;6.150;2023-02-03T02:06:45;102083.34;;;16.29;55.80
62126;BME280;48112;53.282;6.150;2023-02-03T02:07:49;102089.59;;;16.29;55.97
62126;BME280;48112;53.282;6.150;2023-02-03T02:08:51;102082.53;;;16.28;55.69
62126;BME280;48112;53.282;6.150;2023-02-03T02:09:56;102073.22;;;16.29;55.95
62126;BME280;48112;53.282;6.150;2023-02-03T02:10:58;102078.69;;;16.29;55.97
62126;BME280;48112;53.282;6.150;2023-02-03T02:12:01;102075.16;;;16.29;55.93
62126;BME280;48112;53.282;6.150;2023-02-03T02:13:03;102070.84;;;16.28;55.94
62126;BME280;48112;53.282;6.150;2023-02-03T02:14:06;102071.63;;;16.28;55.90
62126;BME280;48112;53.282;6.150;2023-02-03T02:15:08;102082.53;;;16.28;55.88
62126;BME280;48112;53.282;6.150;2023-02-03T02:16:14;102077.06;;;16.28;55.85
62126;BME280;48112;53.282;6.150;2023-02-03T02:17:23;102082.53;;;16.28;55.75
62126;BME280;48112;53.282;6.150;2023-02-03T02:18:35;102070.06;;;16.27;55.75
62126;BME280;48112;53.282;6.150;2023-02-03T02:19:47;102072.78;;;16.27;55.94
62126;BME280;48112;53.282;6.150;2023-02-03T02:21:02;102077.06;;;16.28;55.66
62126;BME280;48112;53.282;6.150;2023-02-03T02:22:12;102071.63;;;16.28;55.67
62126;BME280;48112;53.282;6.150;2023-02-03T02:23:26;102075.50;;;16.27;55.70
62126;BME280;48112;53.282;6.150;2023-02-03T02:26:01;102066.53;;;16.27;55.71
62126;BME280;48112;53.282;6.150;2023-02-03T02:27:09;102080.94;;;16.27;55.67
62126;BME280;48112;53.282;6.150;2023-02-03T02:28:37;102078.22;;;16.27;55.83
62126;BME280;48112;53.282;6.150;2023-02-03T02:31:32;102073.94;;;16.26;55.92
62126;BME280;48112;53.282;6.150;2023-02-03T02:32:39;102078.56;;;16.26;55.73
62126;BME280;48112;53.282;6.150;2023-02-03T02:33:43;102075.84;;;16.26;55.75
62126;BME280;48112;53.282;6.150;2023-02-03T02:34:52;102079.38;;;16.26;55.85
62126;BME280;48112;53.282;6.150;2023-02-03T02:36:02;102085.94;;;16.25;55.65
62126;BME280;48112;53.282;6.150;2023-02-03T02:37:12;102080.50;;;16.25;55.93
62126;BME280;48112;53.282;6.150;2023-02-03T02:38:21;102083.22;;;16.25;55.66
62126;BME280;48112;53.282;6.150;2023-02-03T02:39:31;102067.69;;;16.26;55.70
62126;BME280;48112;53.282;6.150;2023-02-03T02:40:36;102082.47;;;16.25;55.60
62126;BME280;48112;53.282;6.150;2023-02-03T02:41:47;102077.00;;;16.25;55.68
62126;BME280;48112;53.282;6.150;2023-02-03T02:42:54;102061.44;;;16.25;55.64
62126;BME280;48112;53.282;6.150;2023-02-03T02:44:00;102062.56;;;16.24;55.65
62126;BME280;48112;53.282;6.150;2023-02-03T02:45:05;102059.06;;;16.24;55.81
62126;BME280;48112;53.282;6.150;2023-02-03T02:46:11;102059.84;;;16.24;55.92
62126;BME280;48112;53.282;6.150;2023-02-03T02:47:18;102055.56;;;16.23;55.79
62126;BME280;48112;53.282;6.150;2023-02-03T02:48:25;102046.22;;;16.24;55.59
62126;BME280;48112;53.282;6.150;2023-02-03T02:49:29;102058.28;;;16.23;55.67
62126;BME280;48112;53.282;6.150;2023-02-03T02:50:33;102050.09;;;16.23;55.58
62126;BME280;48112;53.282;6.150;2023-02-03T02:51:37;102051.69;;;16.24;55.63
62126;BME280;48112;53.282;6.150;2023-02-03T02:52:44;102047.38;;;16.23;55.78
62126;BME280;48112;53.282;6.150;2023-02-03T02:53:48;102052.81;;;16.23;55.74
62126;BME280;48112;53.282;6.150;2023-02-03T02:54:56;102060.19;;;16.23;55.73
62126;BME280;48112;53.282;6.150;2023-02-03T02:55:59;102052.03;;;16.23;55.57
62126;BME280;48112;53.282;6.150;2023-02-03T02:57:05;102058.28;;;16.23;55.65
62126;BME280;48112;53.282;6.150;2023-02-03T02:58:07;102063.72;;;16.23;55.51
62126;BME280;48112;53.282;6.150;2023-02-03T02:59:11;102055.91;;;16.22;55.77
62126;BME280;48112;53.282;6.150;2023-02-03T03:00:13;102056.69;;;16.22;55.66
62126;BME280;48112;53.282;6.150;2023-02-03T03:01:16;102056.69;;;16.22;55.72
62126;BME280;48112;53.282;6.150;2023-02-03T03:02:21;102059.41;;;16.22;55.73
62126;BME280;48112;53.282;6.150;2023-02-03T03:03:22;102050.44;;;16.22;55.63
62126;BME280;48112;53.282;6.150;2023-02-03T03:04:27;102046.94;;;16.21;55.58
62126;BME280;48112;53.282;6.150;2023-02-03T03:05:31;102056.69;;;16.22;55.51
62126;BME280;48112;53.282;6.150;2023-02-03T03:06:36;102037.19;;;16.20;55.77
62126;BME280;48112;53.282;6.150;2023-02-03T03:07:43;102052.38;;;16.21;55.61
62126;BME280;48112;53.282;6.150;2023-02-03T03:08:47;102045.34;;;16.20;55.59
62126;BME280;48112;53.282;6.150;2023-02-03T03:09:51;102030.56;;;16.21;55.70
62126;BME280;48112;53.282;6.150;2023-02-03T03:10:59;102039.91;;;16.20;55.76
62126;BME280;48112;53.282;6.150;2023-02-03T03:12:03;102043.41;;;16.21;55.51
62126;BME280;48112;53.282;6.150;2023-02-03T03:13:15;102034.44;;;16.20;55.55
62126;BME280;48112;53.282;6.150;2023-02-03T03:14:19;102031.72;;;16.20;55.79
62126;BME280;48112;53.282;6.150;2023-02-03T03:15:25;102019.22;;;16.19;55.52
62126;BME280;48112;53.282;6.150;2023-02-03T03:16:28;102026.28;;;16.20;55.63
62126;BME280;48112;53.282;6.150;2023-02-03T03:17:36;102018.44;;;16.19;55.50
62126;BME280;48112;53.282;6.150;2023-02-03T03:18:41;102019.22;;;16.19;55.72
62126;BME280;48112;53.282;6.150;2023-02-03T03:19:46;102030.94;;;16.20;55.62
62126;BME280;48112;53.282;6.150;2023-02-03T03:20:49;102041.03;;;16.19;55.64
62126;BME280;48112;53.282;6.150;2023-02-03T03:21:56;102032.06;;;16.19;55.62
62126;BME280;48112;53.282;6.150;2023-02-03T03:22:59;102035.56;;;16.19;55.54
62126;BME280;48112;53.282;6.150;2023-02-03T03:24:05;102032.84;;;16.19;55.74
62126;BME280;48112;53.282;6.150;2023-02-03T03:25:09;102020.38;;;16.18;55.59
62126;BME280;48112;53.282;6.150;2023-02-03T03:26:15;102032.06;;;16.19;55.53
62126;BME280;48112;53.282;6.150;2023-02-03T03:27:19;102021.50;;;16.17;55.45
62126;BME280;48112;53.282;6.150;2023-02-03T03:28:25;102022.31;;;16.18;55.43
62126;BME280;48112;53.282;6.150;2023-02-03T03:29:31;102019.22;;;16.19;55.50
62126;BME280;48112;53.282;6.150;2023-02-03T03:30:36;102012.19;;;16.18;55.79
62126;BME280;48112;53.282;6.150;2023-02-03T03:31:39;102012.19;;;16.18;55.52
62126;BME280;48112;53.282;6.150;2023-02-03T03:32:44;102012.19;;;16.18;55.56
62126;BME280;48112;53.282;6.150;2023-02-03T03:33:46;102012.19;;;16.18;55.75
62126;BME280;48112;53.282;6.150;2023-02-03T03:34:49;102015.69;;;16.19;55.47
62126;BME280;48112;53.282;6.150;2023-02-03T03:35:53;102017.66;;;16.18;55.52
62126;BME280;48112;53.282;6.150;2023-02-03T03:37:00;102021.94;;;16.19;55.35
62126;BME280;48112;53.282;6.150;2023-02-03T03:38:04;102020.38;;;16.18;55.38
62126;BME280;48112;53.282;6.150;2023-02-03T03:39:09;102019.56;;;16.18;55.50
62126;BME280;48112;53.282;6.150;2023-02-03T03:40:15;102022.31;;;16.18;55.46
62126;BME280;48112;53.282;6.150;2023-02-03T03:41:22;102018.78;;;16.17;55.68
62126;BME280;48112;53.282;6.150;2023-02-03T03:42:26;102038.66;;;16.18;55.47
62126;BME280;48112;53.282;6.150;2023-02-03T03:43:33;102037.84;;;16.17;55.48
62126;BME280;48112;53.282;6.150;2023-02-03T03:44:38;102016.06;;;16.17;55.62
62126;BME280;48112;53.282;6.150;2023-02-03T03:45:46;102043.31;;;16.17;55.46
62126;BME280;48112;53.282;6.150;2023-02-03T03:46:50;102040.94;;;16.16;55.49
62126;BME280;48112;53.282;6.150;2023-02-03T03:47:58;102029.69;;;16.17;55.46
62126;BME280;48112;53.282;6.150;2023-02-03T03:49:01;102028.91;;;16.17;55.52
62126;BME280;48112;53.282;6.150;2023-02-03T03:50:06;102042.53;;;16.17;55.55
62126;BME280;48112;53.282;6.150;2023-02-03T03:51:11;102037.06;;;16.17;55.44
62126;BME280;48112;53.282;6.150;2023-02-03T03:52:15;102028.09;;;16.16;55.66
62126;BME280;48112;53.282;6.150;2023-02-03T03:53:19;102040.56;;;16.17;55.47
62126;BME280;48112;53.282;6.150;2023-02-03T03:54:24;102047.97;;;16.17;55.75
62126;BME280;48112;53.282;6.150;2023-02-03T03:55:27;102039.00;;;16.16;55.50
62126;BME280;48112;53.282;6.150;2023-02-03T03:56:31;102046.38;;;16.16;55.61
62126;BME280;48112;53.282;6.150;2023-02-03T03:57:36;102045.59;;;16.15;55.46
62126;BME280;48112;53.282;6.150;2023-02-03T03:58:41;102037.44;;;16.15;55.45
62126;BME280;48112;53.282;6.150;2023-02-03T03:59:46;102045.59;;;16.15;55.59
62126;BME280;48112;53.282;6.150;2023-02-03T04:00:49;102044.81;;;16.15;55.35
62126;BME280;48112;53.282;6.150;2023-02-03T04:01:54;102040.16;;;16.15;55.66
62126;BME280;48112;53.282;6.150;2023-02-03T04:03:01;102020.28;;;16.15;55.64
62126;BME280;48112;53.282;6.150;2023-02-03T04:04:06;102040.16;;;16.15;55.50
62126;BME280;48112;53.282;6.150;2023-02-03T04:05:10;102025.72;;;16.15;55.58
62126;BME280;48112;53.282;6.150;2023-02-03T04:06:13;102028.44;;;16.15;55.65
62126;BME280;48112;53.282;6.150;2023-02-03T04:07:15;102031.97;;;16.15;55.55
62126;BME280;48112;53.282;6.150;2023-02-03T04:08:17;102030.63;;;16.09;55.44
62126;BME280;48112;53.282;6.150;2023-02-03T04:09:19;102042.44;;;16.13;55.59
62126;BME280;48112;53.282;6.150;2023-02-03T04:10:23;102033.09;;;16.14;55.56
62126;BME280;48112;53.282;6.150;2023-02-03T04:11:27;102048.69;;;16.14;55.57
62126;BME280;48112;53.282;6.150;2023-02-03T04:12:47;102039.69;;;16.13;55.68
62126;BME280;48112;53.282;6.150;2023-02-03T04:13:50;102043.22;;;16.14;55.56
62126;BME280;48112;53.282;6.150;2023-02-03T04:14:51;102042.44;;;16.13;55.47
62126;BME280;48112;53.282;6.150;2023-02-03T04:15:54;102034.25;;;16.13;55.40
62126;BME280;48112;53.282;6.150;2023-02-03T04:16:56;102042.44;;;16.13;55.57
62126;BME280;48112;53.282;6.150;2023-02-03T04:18:00;102057.63;;;16.14;55.65
62126;BME280;48112;53.282;6.150;2023-02-03T04:19:02;102036.97;;;16.13;55.40
62126;BME280;48112;53.282;6.150;2023-02-03T04:20:09;102043.56;;;16.12;55.50
62126;BME280;48112;53.282;6.150;2023-02-03T04:21:10;102031.53;;;16.13;55.51
62126;BME280;48112;53.282;6.150;2023-02-03T04:22:13;102048.69;;;16.14;55.56
62126;BME280;48112;53.282;6.150;2023-02-03T04:23:15;102036.97;;;16.13;55.59
62126;BME280;48112;53.282;6.150;2023-02-03T04:24:17;102044.34;;;16.13;55.48
62126;BME280;48112;53.282;6.150;2023-02-03T04:25:19;102046.31;;;16.12;55.44
62126;BME280;48112;53.282;6.150;2023-02-03T04:26:24;102046.31;;;16.12;55.58
62126;BME280;48112;53.282;6.150;2023-02-03T04:27:26;102042.44;;;16.13;55.56
62126;BME280;48112;53.282;6.150;2023-02-03T04:28:29;102043.56;;;16.12;55.41
62126;BME280;48112;53.282;6.150;2023-02-03T04:29:30;102028.34;;;16.11;55.58
62126;BME280;48112;53.282;6.150;2023-02-03T04:30:33;102024.50;;;16.12;55.47
62126;BME280;48112;53.282;6.150;2023-02-03T04:31:34;102024.50;;;16.12;55.34
62126;BME280;48112;53.282;6.150;2023-02-03T04:32:38;102029.94;;;16.12;55.62
62126;BME280;48112;53.282;6.150;2023-02-03T04:33:42;102033.81;;;16.11;55.42
62126;BME280;48112;53.282;6.150;2023-02-03T04:34:44;102036.19;;;16.13;55.46
62126;BME280;48112;53.282;6.150;2023-02-03T04:35:46;102049.03;;;16.12;55.74
62126;BME280;48112;53.282;6.150;2023-02-03T04:36:48;102035.41;;;16.12;55.53
62126;BME280;48112;53.282;6.150;2023-02-03T04:37:51;102037.31;;;16.12;55.37
62126;BME280;48112;53.282;6.150;2023-02-03T04:38:53;102039.25;;;16.11;55.61
62126;BME280;48112;53.282;6.150;2023-02-03T04:39:55;102034.59;;;16.12;55.32
62126;BME280;48112;53.282;6.150;2023-02-03T04:40:57;102025.63;;;16.11;55.44
62126;BME280;48112;53.282;6.150;2023-02-03T04:42:00;102033.03;;;16.11;55.49
62126;BME280;48112;53.282;6.150;2023-02-03T04:43:04;102039.25;;;16.11;55.37
62126;BME280;48112;53.282;6.150;2023-02-03T04:44:07;102033.03;;;16.11;55.55
62126;BME280;48112;53.282;6.150;2023-02-03T04:45:09;102038.47;;;16.11;55.42
62126;BME280;48112;53.282;6.150;2023-02-03T04:46:12;102044.69;;;16.11;55.32
62126;BME280;48112;53.282;6.150;2023-02-03T04:47:14;102032.22;;;16.10;55.54
62126;BME280;48112;53.282;6.150;2023-02-03T04:48:16;102026.78;;;16.10;55.36
62126;BME280;48112;53.282;6.150;2023-02-03T04:49:19;102031.44;;;16.10;55.31
62126;BME280;48112;53.282;6.150;2023-02-03T04:50:22;102029.50;;;16.10;55.31
62126;BME280;48112;53.282;6.150;2023-02-03T04:51:25;102041.53;;;16.09;55.25
62126;BME280;48112;53.282;6.150;2023-02-03T04:52:27;102037.69;;;16.10;55.32
62126;BME280;48112;53.282;6.150;2023-02-03T04:53:29;102041.53;;;16.09;55.58
62126;BME280;48112;53.282;6.150;2023-02-03T04:54:32;102054.03;;;16.10;55.24
62126;BME280;48112;53.282;6.150;2023-02-03T04:55:34;102041.53;;;16.09;55.35
62126;BME280;48112;53.282;6.150;2023-02-03T04:56:37;102040.75;;;16.09;55.45
62126;BME280;48112;53.282;6.150;2023-02-03T04:57:38;102046.97;;;16.09;55.53
62126;BME280;48112;53.282;6.150;2023-02-03T04:58:41;102038.78;;;16.09;55.37
62126;BME280;48112;53.282;6.150;2023-02-03T04:59:43;102044.25;;;16.09;55.35
62126;BME280;48112;53.282;6.150;2023-02-03T05:00:46;102038.78;;;16.09;55.26
62126;BME280;48112;53.282;6.150;2023-02-03T05:01:47;102030.63;;;16.09;55.37
62126;BME280;48112;53.282;6.150;2023-02-03T05:02:50;102039.94;;;16.08;55.39
62126;BME280;48112;53.282;6.150;2023-02-03T05:03:52;102039.94;;;16.08;55.25
62126;BME280;48112;53.282;6.150;2023-02-03T05:04:56;102041.88;;;16.08;55.28
62126;BME280;48112;53.282;6.150;2023-02-03T05:05:58;102043.47;;;16.09;55.54
62126;BME280;48112;53.282;6.150;2023-02-03T05:07:00;102048.94;;;16.09;55.23
62126;BME280;48112;53.282;6.150;2023-02-03T05:08:03;102034.50;;;16.08;55.47
62126;BME280;48112;53.282;6.150;2023-02-03T05:09:05;102048.13;;;16.08;55.26
62126;BME280;48112;53.282;6.150;2023-02-03T05:10:08;102035.66;;;16.07;55.56
62126;BME280;48112;53.282;6.150;2023-02-03T05:11:10;102037.22;;;16.08;55.48
62126;BME280;48112;53.282;6.150;2023-02-03T05:12:12;101996.81;;;15.83;55.48
62126;BME280;48112;53.282;6.150;2023-02-03T05:13:14;102038.38;;;16.07;55.21
62126;BME280;48112;53.282;6.150;2023-02-03T05:14:17;102043.81;;;16.07;55.23
62126;BME280;48112;53.282;6.150;2023-02-03T05:15:18;102044.59;;;16.08;55.24
62126;BME280;48112;53.282;6.150;2023-02-03T05:16:21;102046.53;;;16.07;55.28
62126;BME280;48112;53.282;6.150;2023-02-03T05:17:24;102053.13;;;16.06;55.21
62126;BME280;48112;53.282;6.150;2023-02-03T05:18:26;102045.75;;;16.07;55.29
62126;BME280;48112;53.282;6.150;2023-02-03T05:19:28;102045.75;;;16.07;55.20
62126;BME280;48112;53.282;6.150;2023-02-03T05:20:32;102046.53;;;16.07;55.30
62126;BME280;48112;53.282;6.150;2023-02-03T05:21:34;102052.00;;;16.07;55.45
62126;BME280;48112;53.282;6.150;2023-02-03T05:22:37;102044.06;;;16.02;55.41
62126;BME280;48112;53.282;6.150;2023-02-03T05:23:39;102046.91;;;16.06;55.19
62126;BME280;48112;53.282;6.150;2023-02-03T05:24:41;102051.19;;;16.07;55.53
62126;BME280;48112;53.282;6.150;2023-02-03T05:25:43;102042.22;;;16.06;55.46
62126;BME280;48112;53.282;6.150;2023-02-03T05:26:46;102030.56;;;16.06;55.35
62126;BME280;48112;53.282;6.150;2023-02-03T05:27:51;102028.94;;;16.05;55.19
62126;BME280;48112;53.282;6.150;2023-02-03T05:28:54;102022.38;;;16.06;55.25
62126;BME280;48112;53.282;6.150;2023-02-03T05:29:58;102018.84;;;16.05;55.27
62126;BME280;48112;53.282;6.150;2023-02-03T05:31:01;102021.56;;;16.05;55.25
62126;BME280;48112;53.282;6.150;2023-02-03T05:32:03;102016.13;;;16.05;55.39
62126;BME280;48112;53.282;6.150;2023-02-03T05:33:05;102020.00;;;16.04;55.16
62126;BME280;48112;53.282;6.150;2023-02-03T05:34:07;102023.50;;;16.05;55.30
62126;BME280;48112;53.282;6.150;2023-02-03T05:35:10;102024.66;;;16.04;55.49
62126;BME280;48112;53.282;6.150;2023-02-03T05:36:13;102028.19;;;16.04;55.43
62126;BME280;48112;53.282;6.150;2023-02-03T05:37:16;102010.47;;;15.98;55.36
62126;BME280;48112;53.282;6.150;2023-02-03T05:38:17;102039.06;;;16.04;55.28